Hlavní strana
METAR-TAF:

METAR-TAF

Letiště :

Chlef, Alžírsko

zeměpisná šířka: 36-13N, zeměpisná délka: 001-20E, výška: 143 m

Aktuální stav počasí

Zpráva byla vytvořena před 48 minutami, v 00:00 UTC
Západojihozápadní vítr 12 kt
Teplota 12°C
Vlhkost vzduchu 76%
Tlak 1017 hPa
Viditelnost 10 km a více
Polojasno ve výšce 2500 ft
Polojasno ve výšce 23300 ft

METAR: DAOI 130000Z 24012KT 9999 SCT025 SCT233 12/08 Q1017

Čas: 01:48 (00:48 UTC)

Předpověď počasí

Zpráva byla vytvořena před 1 hodinou a 48 minutami, v 23:00 UTC
Předpověď platná od 13 v 00 UTC do 13 v 24 UTC
Západojihozápadní vítr 12 kt
Viditelnost 10 km a více
Polojasno ve výšce 2500 ft
Polojasno ve výšce 23300 ft
Pravděpodobnost 30% :
Dočasný
od 13 v 00 UTC do 13 v 09 UTC
Viditelnost: 6000 m
Oblačno až skoro zataženo ve výšce 2000 ft
Skoro jasno ve výšce 2300 ft, Cumulonimbus.
Oblačno až skoro zataženo ve výšce 2600 ft
bouřka, slabý déšť

TAF: DAOI 122300Z 1300/1324 24012KT 9999 SCT025 SCT233 PROB30 TEMPO 1300/1309 6000 -TSRA BKN020 FEW023CB BKN026

Stav a předpovědi počasí z více než 4 000 letišť (zprávy METAR a TAF).

Červené a žluté tečky na mapě představují dostupné meteorologické stanice.

Když kurzor umístíte na tečku, zobrazí se název stanice.

Pak kliknutím zobrazíte stav a předpověď počasí.

Chcete-li změnit mapu, kliknutím na zelené tlačítko se znaménkem +mapu přiblížíte, kliknutím na zelené tlačítko se znaménkem – mapu oddálíte a kliknutím na zelené šipky přejdete na sousední mapy.


METAR-TAF: